Time;durP1;ratioP1;P1;durP2;ratioP2;P2;SDS_P1;SDS_P2;PMS_P1;PMS_P2;Temp;Humidity;BMP_temperature;BMP_pressure;BME280_temperature;BME280_humidity;BME280_pressure;Samples;Min_cycle;Max_cycle;Signal;HPM_P1;HPM_P2
2023/08/13 06:00:42;;;;;;;709.60;665.50;;;16.10;99.90;;;;;;6239622;22;1716233;-82
2023/08/13 06:03:09;;;;;;;652.57;613.20;;;16.30;99.90;;;;;;6307669;22;20174;-80
2023/08/13 06:05:36;;;;;;;634.23;596.30;;;16.50;99.90;;;;;;6306334;22;20409;-82
2023/08/13 06:08:04;;;;;;;604.17;569.03;;;16.60;99.90;;;;;;6279532;22;20434;-82
2023/08/13 06:10:32;;;;;;;573.10;540.03;;;16.70;99.90;;;;;;6225888;22;20430;-82
2023/08/13 06:13:00;;;;;;;541.10;510.13;;;16.90;99.90;;;;;;6249235;22;20471;-82
2023/08/13 06:15:27;;;;;;;508.13;480.43;;;17.10;99.90;;;;;;6249628;22;20438;-82
2023/08/13 06:17:57;;;;;;;453.63;429.43;;;17.20;99.90;;;;;;6276516;22;20414;-82
2023/08/13 06:20:30;;;;;;;402.20;383.07;;;17.40;99.90;;;;;;6275449;22;20476;-82
2023/08/13 06:22:58;;;;;;;357.33;341.20;;;17.50;99.90;;;;;;6248917;22;20417;-82
2023/08/13 06:25:30;;;;;;;317.27;303.47;;;17.70;99.90;;;;;;6249208;22;20464;-83
2023/08/13 06:27:58;;;;;;;306.13;293.33;;;17.70;99.90;;;;;;6276190;22;20940;-83
2023/08/13 06:30:33;;;;;;;311.97;298.97;;;17.90;99.90;;;;;;6286001;22;20423;-82
2023/08/13 06:33:09;;;;;;;341.03;327.03;;;18.00;99.90;;;;;;6225614;22;20902;-82
2023/08/13 06:35:39;;;;;;;307.53;294.93;;;18.30;99.90;;;;;;6249382;22;20417;-82
2023/08/13 06:38:07;;;;;;;310.43;297.83;;;18.50;99.90;;;;;;6249021;22;20439;-82
2023/08/13 06:40:34;;;;;;;251.47;241.17;;;18.70;99.90;;;;;;6275481;22;20455;-83
2023/08/13 06:43:04;;;;;;;238.97;229.80;;;18.80;99.90;;;;;;6248712;22;20978;-83
2023/08/13 06:45:33;;;;;;;187.67;180.00;;;19.00;99.90;;;;;;6248996;22;20410;-83
2023/08/13 06:48:04;;;;;;;196.93;189.10;;;19.10;99.90;;;;;;6276758;22;20406;-77
2023/08/13 06:50:39;;;;;;;205.27;197.37;;;19.30;99.90;;;;;;6276624;22;20822;-77
2023/08/13 06:53:06;;;;;;;135.30;129.07;;;19.50;99.90;;;;;;6286478;22;20390;-78
2023/08/13 06:55:33;;;;;;;63.53;60.10;;;19.70;99.90;;;;;;6276491;22;20445;-77
2023/08/13 06:58:00;;;;;;;37.33;34.30;;;19.90;99.90;;;;;;6276193;22;20969;-77
2023/08/13 07:00:30;;;;;;;20.97;18.97;;;19.90;99.90;;;;;;6263561;22;20470;-75
2023/08/13 07:02:57;;;;;;;13.00;6.83;;;20.10;99.90;;;;;;6276321;22;20441;-76
2023/08/13 07:05:24;;;;;;;9.83;6.57;;;20.10;99.90;;;;;;6276017;22;20899;-77
2023/08/13 07:07:52;;;;;;;11.10;7.20;;;20.20;99.90;;;;;;6276032;22;20901;-80
2023/08/13 07:10:19;;;;;;;9.77;6.33;;;20.20;99.90;;;;;;6273763;22;20474;-80
2023/08/13 07:12:46;;;;;;;10.97;6.60;;;20.30;99.90;;;;;;6285383;22;20730;-80
2023/08/13 07:15:14;;;;;;;8.10;6.93;;;20.40;99.90;;;;;;6274635;22;20402;-80
2023/08/13 07:17:40;;;;;;;10.27;6.37;;;20.40;99.90;;;;;;6276007;22;20438;-80
2023/08/13 07:20:16;;;;;;;9.97;6.00;;;20.50;99.90;;;;;;6275542;22;20457;-82
2023/08/13 07:22:45;;;;;;;12.27;7.40;;;20.40;99.90;;;;;;6275644;22;20391;-82
2023/08/13 07:25:14;;;;;;;9.27;7.20;;;20.60;99.90;;;;;;6284552;22;20452;-79
2023/08/13 07:27:42;;;;;;;11.80;6.73;;;20.70;99.90;;;;;;6273703;22;20438;-79
2023/08/13 07:30:11;;;;;;;9.73;6.10;;;20.70;99.90;;;;;;6274082;22;20833;-80
2023/08/13 07:32:40;;;;;;;14.07;7.40;;;20.70;99.90;;;;;;6274971;22;20905;-80
2023/08/13 07:35:07;;;;;;;15.27;7.50;;;20.80;99.90;;;;;;6274773;22;20410;-80
2023/08/13 07:37:35;;;;;;;8.47;5.40;;;20.90;99.90;;;;;;6285684;22;20493;-80
2023/08/13 07:40:02;;;;;;;7.63;4.57;;;21.00;99.90;;;;;;6283662;22;20769;-77
2023/08/13 07:42:33;;;;;;;8.00;4.10;;;21.30;99.90;;;;;;6273763;22;20411;-74
2023/08/13 07:45:00;;;;;;;9.67;4.60;;;21.40;99.90;;;;;;6283296;22;20490;-77
2023/08/13 07:47:27;;;;;;;8.70;4.10;;;21.70;99.90;;;;;;6273817;22;20307;-76
2023/08/13 07:49:54;;;;;;;8.87;4.10;;;22.00;99.90;;;;;;6273669;22;20261;-75
2023/08/13 07:52:21;;;;;;;15.57;5.03;;;22.20;99.90;;;;;;6273129;22;20491;-76
2023/08/13 07:54:48;;;;;;;7.70;4.40;;;22.70;99.90;;;;;;6274971;22;20453;-75
2023/08/13 07:57:15;;;;;;;8.67;3.80;;;23.00;99.90;;;;;;6274127;22;20410;-77
2023/08/13 07:59:43;;;;;;;9.57;3.77;;;23.10;99.90;;;;;;6275331;22;20517;-75
2023/08/13 08:02:10;;;;;;;11.30;3.00;;;23.40;99.90;;;;;;6275253;22;20434;-75
2023/08/13 08:04:37;;;;;;;8.37;2.97;;;23.60;99.90;;;;;;6275537;22;20489;-75
2023/08/13 08:07:03;;;;;;;8.87;2.50;;;23.60;99.50;;;;;;6275303;22;20442;-75
2023/08/13 08:09:30;;;;;;;10.17;3.77;;;23.70;98.30;;;;;;6275070;22;20517;-75
2023/08/13 08:11:57;;;;;;;8.20;3.10;;;24.00;96.70;;;;;;6274229;22;20493;-75
2023/08/13 08:14:24;;;;;;;7.83;3.20;;;24.20;96.80;;;;;;6247866;22;20411;-76
2023/08/13 08:16:57;;;;;;;7.97;2.67;;;24.40;92.10;;;;;;6274532;22;20902;-75
2023/08/13 08:19:24;;;;;;;12.93;3.60;;;24.70;93.60;;;;;;6275650;22;20427;-74
2023/08/13 08:21:51;;;;;;;9.40;2.63;;;24.90;93.70;;;;;;6275837;22;20957;-76
2023/08/13 08:24:18;;;;;;;11.53;5.63;;;25.30;90.30;;;;;;6275980;22;20506;-75
2023/08/13 08:26:45;;;;;;;8.87;2.70;;;25.40;87.50;;;;;;6248213;22;20418;-76
2023/08/13 08:29:12;;;;;;;9.30;2.60;;;25.80;83.30;;;;;;6274706;22;20946;-77
2023/08/13 08:31:39;;;;;;;9.70;3.00;;;25.80;75.40;;;;;;6284710;22;20421;-77
2023/08/13 08:34:07;;;;;;;10.27;2.80;;;25.90;75.30;;;;;;6247587;22;21001;-76
2023/08/13 08:36:34;;;;;;;10.07;2.80;;;25.90;75.30;;;;;;6274539;22;20490;-77
2023/08/13 08:39:01;;;;;;;13.53;2.43;;;26.30;73.20;;;;;;6274386;22;20498;-76
2023/08/13 08:41:31;;;;;;;9.50;2.57;;;25.90;70.80;;;;;;6274683;22;20473;-76
2023/08/13 08:43:59;;;;;;;10.80;2.33;;;25.80;66.90;;;;;;6274750;22;20431;-76
2023/08/13 08:46:28;;;;;;;8.27;2.27;;;25.60;66.80;;;;;;6274399;22;20411;-76
2023/08/13 08:48:55;;;;;;;9.00;2.60;;;25.60;61.40;;;;;;6274392;22;20517;-76
2023/08/13 08:51:23;;;;;;;6.90;1.80;;;25.80;62.80;;;;;;6274948;22;20772;-76
2023/08/13 08:53:51;;;;;;;6.80;2.53;;;25.90;58.60;;;;;;6273898;22;20438;-76
2023/08/13 08:56:18;;;;;;;7.53;2.60;;;26.50;50.10;;;;;;6274939;22;20502;-76
2023/08/13 08:58:45;;;;;;;11.27;2.90;;;26.70;41.20;;;;;;6274834;22;20430;-76
2023/08/13 09:01:12;;;;;;;11.63;3.93;;;26.80;42.40;;;;;;6274402;22;20414;-76
2023/08/13 09:03:39;;;;;;;7.77;2.30;;;26.50;41.00;;;;;;6274633;22;20446;-76
2023/08/13 09:06:05;;;;;;;16.03;4.67;;;26.60;41.10;;;;;;6274832;22;20493;-75
2023/08/13 09:08:34;;;;;;;9.87;2.30;;;26.60;41.10;;;;;;6274263;22;20410;-75
2023/08/13 09:11:02;;;;;;;8.10;2.23;;;26.90;37.00;;;;;;6274019;22;20980;-75
2023/08/13 09:13:29;;;;;;;7.83;2.37;;;27.20;41.50;;;;;;6273865;22;20434;-75
2023/08/13 09:15:59;;;;;;;9.73;2.50;;;27.20;32.30;;;;;;6247158;22;20489;-76
2023/08/13 09:18:26;;;;;;;6.60;2.10;;;27.00;32.10;;;;;;6274258;22;20457;-75
2023/08/13 09:20:53;;;;;;;8.70;2.90;;;26.90;32.00;;;;;;6274388;22;20403;-75
2023/08/13 09:23:24;;;;;;;7.37;2.00;;;27.20;34.10;;;;;;6274271;22;20414;-75
2023/08/13 09:25:58;;;;;;;7.50;2.50;;;27.00;32.10;;;;;;6274751;22;20729;-75
2023/08/13 09:28:25;;;;;;;10.73;2.40;;;27.30;32.30;;;;;;6274092;22;20899;-75
2023/08/13 09:30:54;;;;;;;8.70;2.70;;;27.30;27.40;;;;;;6274339;22;20430;-75
2023/08/13 09:33:20;;;;;;;6.93;2.37;;;27.30;24.60;;;;;;6274424;22;20791;-74
2023/08/13 09:35:47;;;;;;;7.20;2.20;;;27.40;24.70;;;;;;6274579;22;20460;-74
2023/08/13 09:38:14;;;;;;;12.47;2.40;;;27.50;26.00;;;;;;6274472;22;20415;-74
2023/08/13 09:40:43;;;;;;;8.50;2.60;;;27.20;24.50;;;;;;6274206;22;20831;-75
2023/08/13 09:43:16;;;;;;;8.17;2.00;;;27.20;24.70;;;;;;6274201;22;20442;-74
2023/08/13 09:45:46;;;;;;;8.50;2.97;;;26.90;25.20;;;;;;6274607;22;20391;-74
2023/08/13 09:48:16;;;;;;;8.27;2.30;;;27.30;29.20;;;;;;6274443;22;20490;-74
2023/08/13 09:50:44;;;;;;;8.90;2.07;;;27.00;24.40;;;;;;6247039;22;20441;-74
2023/08/13 09:53:14;;;;;;;7.30;2.53;;;27.00;24.80;;;;;;6274754;22;20415;-75
2023/08/13 09:55:49;;;;;;;6.00;1.90;;;27.00;24.40;;;;;;6276453;22;20748;-75
2023/08/13 09:58:19;;;;;;;8.93;2.60;;;27.10;27.30;;;;;;6276125;22;20856;-75
2023/08/13 10:00:47;;;;;;;7.10;2.30;;;27.20;24.50;;;;;;6275829;22;20973;-75
2023/08/13 10:03:15;;;;;;;9.97;2.50;;;27.40;24.60;;;;;;6275444;22;20496;-76
2023/08/13 10:05:44;;;;;;;7.27;2.10;;;27.20;24.50;;;;;;6275234;22;20418;-75
2023/08/13 10:08:12;;;;;;;11.60;2.37;;;27.30;22.60;;;;;;6275852;22;20489;-75
2023/08/13 10:10:40;;;;;;;7.33;1.93;;;27.10;24.40;;;;;;6276395;22;20438;-74
2023/08/13 10:13:08;;;;;;;8.40;1.87;;;27.20;18.20;;;;;;6276155;22;20465;-74
2023/08/13 10:15:38;;;;;;;9.40;2.47;;;26.90;22.20;;;;;;6277662;22;20841;-75
2023/08/13 10:18:05;;;;;;;8.43;2.47;;;27.10;24.40;;;;;;6277661;22;20855;-74
2023/08/13 10:20:32;;;;;;;8.13;2.37;;;27.30;24.60;;;;;;6275646;22;20426;-75
2023/08/13 10:23:01;;;;;;;7.20;2.23;;;27.60;21.10;;;;;;6276852;22;20410;-75
2023/08/13 10:25:29;;;;;;;9.17;2.47;;;27.90;24.60;;;;;;6277637;22;20434;-75
2023/08/13 10:27:57;;;;;;;7.83;2.80;;;27.90;19.90;;;;;;6276749;22;20406;-75
2023/08/13 10:30:24;;;;;;;7.90;2.00;;;28.10;18.20;;;;;;6248656;22;20466;-74
2023/08/13 10:32:58;;;;;;;8.50;2.47;;;28.10;17.50;;;;;;6276268;22;20410;-75
2023/08/13 10:35:34;;;;;;;11.30;2.30;;;28.10;17.50;;;;;;6277139;22;20392;-78
2023/08/13 10:38:02;;;;;;;8.33;2.40;;;28.30;17.60;;;;;;6276132;22;20866;-77
2023/08/13 10:40:30;;;;;;;12.77;3.20;;;28.50;17.70;;;;;;6276654;22;20429;-78
2023/08/13 10:42:57;;;;;;;9.90;4.60;;;28.30;17.60;;;;;;6275793;22;20408;-78
2023/08/13 10:48:08;;;;;;;15.30;4.97;;;28.70;12.70;;;;;;6275932;22;20409;-77
2023/08/13 10:50:41;;;;;;;9.40;4.03;;;29.50;13.00;;;;;;6276040;22;20999;-77
2023/08/13 10:53:09;;;;;;;8.90;3.60;;;29.70;10.70;;;;;;6275812;22;20460;-78
2023/08/13 10:55:41;;;;;;;10.00;3.13;;;30.50;11.10;;;;;;6276175;22;20425;-78
2023/08/13 10:58:08;;;;;;;18.50;5.60;;;31.40;3.80;;;;;;6276298;22;20407;-78
2023/08/13 11:00:43;;;;;;;8.80;2.50;;;31.00;3.40;;;;;;6276636;22;20453;-78
2023/08/13 11:03:22;;;;;;;12.27;4.13;;;30.40;3.20;;;;;;6275511;22;20388;-79
2023/08/13 11:05:51;;;;;;;14.00;3.30;;;30.30;3.20;;;;;;6276325;22;20438;-78
2023/08/13 11:08:19;;;;;;;11.83;7.37;;;30.00;3.00;;;;;;6275863;22;20433;-78
2023/08/13 11:10:47;;;;;;;9.37;2.47;;;29.90;3.00;;;;;;6275721;22;20958;-78
2023/08/13 11:13:14;;;;;;;33.13;24.87;;;29.40;2.70;;;;;;6275693;22;20407;-77
2023/08/13 11:15:48;;;;;;;24.63;20.93;;;29.50;10.60;;;;;;6276264;22;20385;-78
2023/08/13 11:18:15;;;;;;;37.53;23.67;;;29.20;5.90;;;;;;6276398;22;20435;-79
2023/08/13 11:20:45;;;;;;;24.13;15.80;;;29.20;2.60;;;;;;6275906;22;20381;-77
2023/08/13 11:23:12;;;;;;;38.23;14.23;;;28.80;7.70;;;;;;6276201;22;20394;-77
2023/08/13 11:25:39;;;;;;;13.57;3.90;;;29.10;10.30;;;;;;6248973;22;20413;-78
2023/08/13 11:28:07;;;;;;;7.30;2.67;;;28.50;6.20;;;;;;6276024;22;20949;-77
2023/08/13 11:30:34;;;;;;;8.10;3.00;;;28.20;9.90;;;;;;6276006;22;20524;-78
2023/08/13 11:33:01;;;;;;;11.40;5.43;;;28.20;9.90;;;;;;6275468;22;20901;-77
2023/08/13 11:35:29;;;;;;;10.20;4.43;;;28.00;9.80;;;;;;6275002;22;20414;-77
2023/08/13 11:37:57;;;;;;;8.70;2.80;;;27.80;13.40;;;;;;6275287;22;20420;-77
2023/08/13 11:40:24;;;;;;;10.10;3.20;;;27.50;16.70;;;;;;6275780;22;20488;-75
